Pretty Lady — 9HVY9 — position and weather

sailwx.info

Track history (hours):
 
Tides and Currents Weather Stations Pressure Air Temp Water Temp Dewpoint Dewpoint Depression Visibility Wind Speed Wind Dir Waves Ship Positions

Pretty Lady

Last reported at 2016-Oct-11 02:28 UTC. Time now 2016-Dec-06 18:01 UTC.
Position N 20°18' W 018°05'.
Warning: this ship's position is 56 days out of date.

Length 189 m; draft 8.1 m.

Type: Cargo ship. MMSI: 249617000.

Date/timePositionNaut miles runAvg speedWind from/ knotsBaromVisibWave heightAir tempDewpointWater temp
2016-Oct-11 02:28N 20°18' W 018°05'3411.8
2016-Oct-10 23:33N 20°53' W 018°06'44311.7
2016-Oct-09 09:33N 27°48' W 015°16'1212.5
2016-Oct-09 08:33N 28°00' W 015°16'9 2.3
2016-Oct-09 04:32N 28°07' W 015°24'0 0.0
2016-Oct-09 03:32N 28°07' W 015°24'3 1.7
2016-Oct-09 01:33N 28°07' W 015°20'1111.0
2016-Oct-09 00:33N 28°14' W 015°11'37711.6
2016-Oct-07 16:11N 32°55' W 010°18'14311.1
2016-Oct-07 03:17N 34°41' W 008°24'1111.8
2016-Oct-07 02:22N 34°49' W 008°15'3611.9
2016-Oct-06 23:21N 35°16' W 007°47'  
2016-Oct-04 14:12N 35°39' W 007°10'6 8.8
2016-Oct-04 13:32N 35°35' W 007°15'11310.3
2016-Oct-04 02:33N 34°04' W 008°37'  
Track history (hours):
 
Tides and Currents Weather Stations Pressure Air Temp Water Temp Dewpoint Dewpoint Depression Visibility Wind Speed Wind Dir Waves Ship Positions

Pretty Lady

Last reported at 2016-Oct-11 02:28 UTC. Time now 2016-Dec-06 18:01 UTC.
Position N 20°18' W 018°05'.
Warning: this ship's position is 56 days out of date.

Length 189 m; draft 8.1 m.

Type: Cargo ship. MMSI: 249617000.

Date/timePositionNaut miles runAvg speedWind from/ knotsBaromVisibWave heightAir tempDewpointWater temp
2016-Oct-11 02:28N 20°18' W 018°05'3411.8
2016-Oct-10 23:33N 20°53' W 018°06'44311.7
2016-Oct-09 09:33N 27°48' W 015°16'1212.5
2016-Oct-09 08:33N 28°00' W 015°16'9 2.3
2016-Oct-09 04:32N 28°07' W 015°24'0 0.0
2016-Oct-09 03:32N 28°07' W 015°24'3 1.7
2016-Oct-09 01:33N 28°07' W 015°20'1111.0
2016-Oct-09 00:33N 28°14' W 015°11'37711.6
2016-Oct-07 16:11N 32°55' W 010°18'14311.1
2016-Oct-07 03:17N 34°41' W 008°24'1111.8
2016-Oct-07 02:22N 34°49' W 008°15'3611.9
2016-Oct-06 23:21N 35°16' W 007°47'  
2016-Oct-04 14:12N 35°39' W 007°10'6 8.8
2016-Oct-04 13:32N 35°35' W 007°15'11310.3
2016-Oct-04 02:33N 34°04' W 008°37'  

Dump ship's entire track history